sensor_id;sensor_type;location;lat;lon;timestamp;temperature;humidity
31074;DHT22;17730;53.552;9.940;2023-01-28T00:02:02;3.20;99.90
31074;DHT22;17730;53.552;9.940;2023-01-28T00:04:28;3.20;99.90
31074;DHT22;17730;53.552;9.940;2023-01-28T00:06:53;3.20;99.90
31074;DHT22;17730;53.552;9.940;2023-01-28T00:09:18;3.20;99.90
31074;DHT22;17730;53.552;9.940;2023-01-28T00:11:44;3.20;99.90
31074;DHT22;17730;53.552;9.940;2023-01-28T00:14:10;3.10;99.90
31074;DHT22;17730;53.552;9.940;2023-01-28T00:16:36;3.20;99.90
31074;DHT22;17730;53.552;9.940;2023-01-28T00:19:01;3.20;99.90
31074;DHT22;17730;53.552;9.940;2023-01-28T00:21:27;3.30;99.90
31074;DHT22;17730;53.552;9.940;2023-01-28T00:23:53;3.30;99.90
31074;DHT22;17730;53.552;9.940;2023-01-28T00:26:19;3.30;99.90
31074;DHT22;17730;53.552;9.940;2023-01-28T00:28:45;3.40;99.90
31074;DHT22;17730;53.552;9.940;2023-01-28T00:31:16;3.40;99.90
31074;DHT22;17730;53.552;9.940;2023-01-28T00:33:43;3.40;99.90
31074;DHT22;17730;53.552;9.940;2023-01-28T00:36:08;3.40;99.90
31074;DHT22;17730;53.552;9.940;2023-01-28T00:38:34;3.40;99.90
31074;DHT22;17730;53.552;9.940;2023-01-28T00:41:33;3.40;99.90
31074;DHT22;17730;53.552;9.940;2023-01-28T00:43:52;3.40;99.90
31074;DHT22;17730;53.552;9.940;2023-01-28T00:46:18;3.40;99.90
31074;DHT22;17730;53.552;9.940;2023-01-28T00:48:43;3.40;99.90
31074;DHT22;17730;53.552;9.940;2023-01-28T00:51:09;3.40;99.90
31074;DHT22;17730;53.552;9.940;2023-01-28T00:53:35;3.50;99.90
31074;DHT22;17730;53.552;9.940;2023-01-28T00:56:03;3.50;99.90
31074;DHT22;17730;53.552;9.940;2023-01-28T00:58:29;3.50;99.90
31074;DHT22;17730;53.552;9.940;2023-01-28T01:00:54;3.50;99.90
31074;DHT22;17730;53.552;9.940;2023-01-28T01:03:19;3.50;99.90
31074;DHT22;17730;53.552;9.940;2023-01-28T01:05:45;3.60;99.90
31074;DHT22;17730;53.552;9.940;2023-01-28T01:08:11;3.50;99.90
31074;DHT22;17730;53.552;9.940;2023-01-28T01:10:36;3.50;99.90
31074;DHT22;17730;53.552;9.940;2023-01-28T01:13:02;3.50;99.90
31074;DHT22;17730;53.552;9.940;2023-01-28T01:15:28;3.50;99.90
31074;DHT22;17730;53.552;9.940;2023-01-28T01:17:53;3.40;99.90
31074;DHT22;17730;53.552;9.940;2023-01-28T01:20:20;3.40;99.90
31074;DHT22;17730;53.552;9.940;2023-01-28T01:22:46;3.40;99.90
31074;DHT22;17730;53.552;9.940;2023-01-28T01:25:12;3.40;99.90
31074;DHT22;17730;53.552;9.940;2023-01-28T01:27:39;3.50;99.90
31074;DHT22;17730;53.552;9.940;2023-01-28T01:30:04;3.40;99.90
31074;DHT22;17730;53.552;9.940;2023-01-28T01:32:31;3.40;99.90
31074;DHT22;17730;53.552;9.940;2023-01-28T01:34:57;3.40;99.90
31074;DHT22;17730;53.552;9.940;2023-01-28T01:37:22;3.40;99.90
31074;DHT22;17730;53.552;9.940;2023-01-28T01:39:48;3.40;99.90
31074;DHT22;17730;53.552;9.940;2023-01-28T01:42:13;3.40;99.90
31074;DHT22;17730;53.552;9.940;2023-01-28T01:44:51;3.40;99.90
31074;DHT22;17730;53.552;9.940;2023-01-28T01:47:18;3.40;99.90
31074;DHT22;17730;53.552;9.940;2023-01-28T01:49:45;3.40;99.90
31074;DHT22;17730;53.552;9.940;2023-01-28T01:52:12;3.40;99.90
31074;DHT22;17730;53.552;9.940;2023-01-28T01:54:40;3.40;99.90
31074;DHT22;17730;53.552;9.940;2023-01-28T01:57:07;3.30;99.90
31074;DHT22;17730;53.552;9.940;2023-01-28T01:59:34;3.30;99.90
31074;DHT22;17730;53.552;9.940;2023-01-28T02:02:02;3.20;99.90
31074;DHT22;17730;53.552;9.940;2023-01-28T02:04:28;3.20;99.90
31074;DHT22;17730;53.552;9.940;2023-01-28T02:06:55;3.20;99.90
31074;DHT22;17730;53.552;9.940;2023-01-28T02:09:25;3.20;99.90
31074;DHT22;17730;53.552;9.940;2023-01-28T02:11:52;3.30;99.90
31074;DHT22;17730;53.552;9.940;2023-01-28T02:14:18;3.30;99.90
31074;DHT22;17730;53.552;9.940;2023-01-28T02:16:44;3.30;99.90
31074;DHT22;17730;53.552;9.940;2023-01-28T02:19:09;3.30;99.90
31074;DHT22;17730;53.552;9.940;2023-01-28T02:26:55;3.30;99.90
31074;DHT22;17730;53.552;9.940;2023-01-28T02:32:14;3.20;99.90
31074;DHT22;17730;53.552;9.940;2023-01-28T02:34:37;3.20;99.90
31074;DHT22;17730;53.552;9.940;2023-01-28T02:37:10;3.30;99.90
31074;DHT22;17730;53.552;9.940;2023-01-28T02:39:46;3.20;99.90
31074;DHT22;17730;53.552;9.940;2023-01-28T02:42:20;3.20;99.90
31074;DHT22;17730;53.552;9.940;2023-01-28T02:44:47;3.20;99.90
31074;DHT22;17730;53.552;9.940;2023-01-28T02:47:13;3.20;99.90
31074;DHT22;17730;53.552;9.940;2023-01-28T02:49:58;3.20;99.90
31074;DHT22;17730;53.552;9.940;2023-01-28T02:52:26;3.20;99.90
31074;DHT22;17730;53.552;9.940;2023-01-28T02:55:14;3.20;99.90
31074;DHT22;17730;53.552;9.940;2023-01-28T02:57:45;3.20;99.90
31074;DHT22;17730;53.552;9.940;2023-01-28T03:00:15;3.20;99.90
31074;DHT22;17730;53.552;9.940;2023-01-28T03:05:11;3.20;99.90
31074;DHT22;17730;53.552;9.940;2023-01-28T03:07:40;3.20;99.90
31074;DHT22;17730;53.552;9.940;2023-01-28T03:10:06;3.20;99.90
31074;DHT22;17730;53.552;9.940;2023-01-28T03:12:34;3.20;99.90
31074;DHT22;17730;53.552;9.940;2023-01-28T03:15:20;3.20;99.90
31074;DHT22;17730;53.552;9.940;2023-01-28T03:21:03;3.10;99.90
31074;DHT22;17730;53.552;9.940;2023-01-28T03:26:34;3.10;99.90
31074;DHT22;17730;53.552;9.940;2023-01-28T03:29:19;3.10;99.90
31074;DHT22;17730;53.552;9.940;2023-01-28T03:32:04;3.10;99.90
31074;DHT22;17730;53.552;9.940;2023-01-28T03:34:48;3.10;99.90
31074;DHT22;17730;53.552;9.940;2023-01-28T03:37:33;3.10;99.90
31074;DHT22;17730;53.552;9.940;2023-01-28T03:40:03;3.10;99.90
31074;DHT22;17730;53.552;9.940;2023-01-28T03:42:29;3.10;99.90
31074;DHT22;17730;53.552;9.940;2023-01-28T03:44:54;3.10;99.90
31074;DHT22;17730;53.552;9.940;2023-01-28T03:47:24;3.10;99.90
31074;DHT22;17730;53.552;9.940;2023-01-28T03:49:50;3.10;99.90
31074;DHT22;17730;53.552;9.940;2023-01-28T03:52:17;3.10;99.90
31074;DHT22;17730;53.552;9.940;2023-01-28T03:54:44;3.00;99.90
31074;DHT22;17730;53.552;9.940;2023-01-28T03:57:11;3.00;99.90
31074;DHT22;17730;53.552;9.940;2023-01-28T03:59:37;2.90;99.90
31074;DHT22;17730;53.552;9.940;2023-01-28T04:02:03;2.90;99.90
31074;DHT22;17730;53.552;9.940;2023-01-28T04:04:29;2.90;99.90
31074;DHT22;17730;53.552;9.940;2023-01-28T04:06:56;2.80;99.90
31074;DHT22;17730;53.552;9.940;2023-01-28T04:09:22;2.70;99.90
31074;DHT22;17730;53.552;9.940;2023-01-28T04:11:48;2.70;99.90
31074;DHT22;17730;53.552;9.940;2023-01-28T04:14:14;2.70;99.90
31074;DHT22;17730;53.552;9.940;2023-01-28T04:16:40;2.60;99.90
31074;DHT22;17730;53.552;9.940;2023-01-28T04:19:07;2.60;99.90
31074;DHT22;17730;53.552;9.940;2023-01-28T04:21:33;2.60;99.90
31074;DHT22;17730;53.552;9.940;2023-01-28T04:23:58;2.50;99.90
31074;DHT22;17730;53.552;9.940;2023-01-28T04:26:24;2.40;99.90
31074;DHT22;17730;53.552;9.940;2023-01-28T04:28:49;2.40;99.90
31074;DHT22;17730;53.552;9.940;2023-01-28T04:31:15;2.30;99.90
31074;DHT22;17730;53.552;9.940;2023-01-28T04:33:40;2.30;99.90
31074;DHT22;17730;53.552;9.940;2023-01-28T04:36:05;2.20;99.90
31074;DHT22;17730;53.552;9.940;2023-01-28T04:38:31;2.20;99.90
31074;DHT22;17730;53.552;9.940;2023-01-28T04:40:56;2.20;99.90
31074;DHT22;17730;53.552;9.940;2023-01-28T04:43:22;2.10;99.90
31074;DHT22;17730;53.552;9.940;2023-01-28T04:45:48;2.10;99.90
31074;DHT22;17730;53.552;9.940;2023-01-28T04:48:14;2.20;99.90
31074;DHT22;17730;53.552;9.940;2023-01-28T04:50:39;2.10;99.90
31074;DHT22;17730;53.552;9.940;2023-01-28T04:53:05;2.10;99.90
31074;DHT22;17730;53.552;9.940;2023-01-28T04:55:30;2.10;99.90
31074;DHT22;17730;53.552;9.940;2023-01-28T04:57:56;2.10;99.90
31074;DHT22;17730;53.552;9.940;2023-01-28T05:00:21;2.10;99.90
31074;DHT22;17730;53.552;9.940;2023-01-28T05:02:47;2.10;99.90
31074;DHT22;17730;53.552;9.940;2023-01-28T05:05:12;2.10;99.90
31074;DHT22;17730;53.552;9.940;2023-01-28T05:07:38;2.10;99.90
31074;DHT22;17730;53.552;9.940;2023-01-28T05:10:03;2.10;99.90
31074;DHT22;17730;53.552;9.940;2023-01-28T05:12:29;2.10;99.90
31074;DHT22;17730;53.552;9.940;2023-01-28T05:14:57;2.10;99.90
31074;DHT22;17730;53.552;9.940;2023-01-28T05:17:25;2.10;99.90
31074;DHT22;17730;53.552;9.940;2023-01-28T05:19:50;2.00;99.90
31074;DHT22;17730;53.552;9.940;2023-01-28T05:22:16;2.00;99.90
31074;DHT22;17730;53.552;9.940;2023-01-28T05:24:41;1.90;99.90
31074;DHT22;17730;53.552;9.940;2023-01-28T05:27:07;1.80;99.90
31074;DHT22;17730;53.552;9.940;2023-01-28T05:29:32;1.80;99.90
31074;DHT22;17730;53.552;9.940;2023-01-28T05:31:58;1.70;99.90
31074;DHT22;17730;53.552;9.940;2023-01-28T05:34:23;1.60;99.90
31074;DHT22;17730;53.552;9.940;2023-01-28T05:36:49;1.50;99.90
31074;DHT22;17730;53.552;9.940;2023-01-28T05:39:14;1.50;99.90
31074;DHT22;17730;53.552;9.940;2023-01-28T05:41:40;1.40;99.90
31074;DHT22;17730;53.552;9.940;2023-01-28T05:44:05;1.40;99.90
31074;DHT22;17730;53.552;9.940;2023-01-28T05:46:31;1.50;99.90
31074;DHT22;17730;53.552;9.940;2023-01-28T05:48:56;1.50;99.90
31074;DHT22;17730;53.552;9.940;2023-01-28T05:51:22;1.50;99.90
31074;DHT22;17730;53.552;9.940;2023-01-28T05:53:47;1.40;99.90
31074;DHT22;17730;53.552;9.940;2023-01-28T05:56:12;1.40;99.90
31074;DHT22;17730;53.552;9.940;2023-01-28T05:58:38;1.40;99.90
31074;DHT22;17730;53.552;9.940;2023-01-28T06:01:03;1.40;99.90
31074;DHT22;17730;53.552;9.940;2023-01-28T06:03:29;1.30;99.90
31074;DHT22;17730;53.552;9.940;2023-01-28T06:05:54;1.20;99.90
31074;DHT22;17730;53.552;9.940;2023-01-28T06:08:20;1.20;99.90
31074;DHT22;17730;53.552;9.940;2023-01-28T06:10:45;1.20;99.90
31074;DHT22;17730;53.552;9.940;2023-01-28T06:13:11;1.10;99.90
31074;DHT22;17730;53.552;9.940;2023-01-28T06:15:36;1.10;99.90
31074;DHT22;17730;53.552;9.940;2023-01-28T06:18:02;1.10;99.90
31074;DHT22;17730;53.552;9.940;2023-01-28T06:20:27;1.10;99.90
31074;DHT22;17730;53.552;9.940;2023-01-28T06:22:53;1.10;99.90
31074;DHT22;17730;53.552;9.940;2023-01-28T06:25:18;1.10;99.90
31074;DHT22;17730;53.552;9.940;2023-01-28T06:27:44;1.10;99.90
31074;DHT22;17730;53.552;9.940;2023-01-28T06:30:10;1.10;99.90
31074;DHT22;17730;53.552;9.940;2023-01-28T06:32:36;1.20;99.90
31074;DHT22;17730;53.552;9.940;2023-01-28T06:35:01;1.10;99.90
31074;DHT22;17730;53.552;9.940;2023-01-28T06:37:27;1.10;99.90
31074;DHT22;17730;53.552;9.940;2023-01-28T06:39:52;1.10;99.90
31074;DHT22;17730;53.552;9.940;2023-01-28T06:42:18;1.00;99.90
31074;DHT22;17730;53.552;9.940;2023-01-28T06:44:43;0.90;99.90
31074;DHT22;17730;53.552;9.940;2023-01-28T06:47:09;1.00;99.90
31074;DHT22;17730;53.552;9.940;2023-01-28T06:49:36;1.00;99.90
31074;DHT22;17730;53.552;9.940;2023-01-28T06:52:01;0.90;99.90
31074;DHT22;17730;53.552;9.940;2023-01-28T06:54:27;0.80;99.90
31074;DHT22;17730;53.552;9.940;2023-01-28T06:56:52;0.80;99.90
31074;DHT22;17730;53.552;9.940;2023-01-28T06:59:18;0.70;99.90
31074;DHT22;17730;53.552;9.940;2023-01-28T07:01:43;0.70;99.90
31074;DHT22;17730;53.552;9.940;2023-01-28T07:04:08;0.80;99.90
31074;DHT22;17730;53.552;9.940;2023-01-28T07:06:34;0.80;99.90
31074;DHT22;17730;53.552;9.940;2023-01-28T07:08:59;0.80;99.90
31074;DHT22;17730;53.552;9.940;2023-01-28T07:11:25;0.80;99.90
31074;DHT22;17730;53.552;9.940;2023-01-28T07:13:50;0.80;99.90
31074;DHT22;17730;53.552;9.940;2023-01-28T07:16:16;0.80;99.90
31074;DHT22;17730;53.552;9.940;2023-01-28T07:18:41;0.80;99.90
31074;DHT22;17730;53.552;9.940;2023-01-28T07:21:07;0.80;99.90
31074;DHT22;17730;53.552;9.940;2023-01-28T07:23:32;0.80;99.90
31074;DHT22;17730;53.552;9.940;2023-01-28T07:26:01;0.70;99.90
31074;DHT22;17730;53.552;9.940;2023-01-28T07:28:27;0.70;99.90
31074;DHT22;17730;53.552;9.940;2023-01-28T07:30:52;0.70;99.90
31074;DHT22;17730;53.552;9.940;2023-01-28T07:33:18;0.70;99.90
31074;DHT22;17730;53.552;9.940;2023-01-28T07:35:43;0.70;99.90
31074;DHT22;17730;53.552;9.940;2023-01-28T07:38:09;0.60;99.90
31074;DHT22;17730;53.552;9.940;2023-01-28T07:40:35;0.60;99.90
31074;DHT22;17730;53.552;9.940;2023-01-28T07:43:00;0.60;99.90
31074;DHT22;17730;53.552;9.940;2023-01-28T07:45:26;0.60;99.90
31074;DHT22;17730;53.552;9.940;2023-01-28T07:47:58;0.70;99.90
31074;DHT22;17730;53.552;9.940;2023-01-28T07:50:24;0.70;99.90
31074;DHT22;17730;53.552;9.940;2023-01-28T07:52:50;0.60;99.90
31074;DHT22;17730;53.552;9.940;2023-01-28T07:55:16;0.60;99.90
31074;DHT22;17730;53.552;9.940;2023-01-28T08:00:13;0.60;99.90
31074;DHT22;17730;53.552;9.940;2023-01-28T08:02:39;0.60;99.90
31074;DHT22;17730;53.552;9.940;2023-01-28T08:05:04;0.60;99.90
31074;DHT22;17730;53.552;9.940;2023-01-28T08:07:30;0.60;99.90
31074;DHT22;17730;53.552;9.940;2023-01-28T08:09:55;0.60;99.90
31074;DHT22;17730;53.552;9.940;2023-01-28T08:12:20;0.70;99.90
31074;DHT22;17730;53.552;9.940;2023-01-28T08:14:46;0.70;99.90
31074;DHT22;17730;53.552;9.940;2023-01-28T08:17:11;0.70;99.90
31074;DHT22;17730;53.552;9.940;2023-01-28T08:19:37;0.70;99.90
31074;DHT22;17730;53.552;9.940;2023-01-28T08:22:02;0.70;99.90
31074;DHT22;17730;53.552;9.940;2023-01-28T08:24:28;0.70;99.90
31074;DHT22;17730;53.552;9.940;2023-01-28T08:26:53;0.80;99.90
31074;DHT22;17730;53.552;9.940;2023-01-28T08:29:19;0.90;99.90
31074;DHT22;17730;53.552;9.940;2023-01-28T08:31:44;1.00;99.90
31074;DHT22;17730;53.552;9.940;2023-01-28T08:34:10;1.10;99.90
31074;DHT22;17730;53.552;9.940;2023-01-28T08:36:35;1.30;99.90
31074;DHT22;17730;53.552;9.940;2023-01-28T08:39:01;1.40;99.90
31074;DHT22;17730;53.552;9.940;2023-01-28T08:41:26;1.50;99.90
31074;DHT22;17730;53.552;9.940;2023-01-28T08:43:51;1.60;99.90
31074;DHT22;17730;53.552;9.940;2023-01-28T08:46:17;1.50;99.90
31074;DHT22;17730;53.552;9.940;2023-01-28T08:48:43;1.50;99.90
31074;DHT22;17730;53.552;9.940;2023-01-28T08:51:08;1.70;99.90
31074;DHT22;17730;53.552;9.940;2023-01-28T08:53:34;1.80;99.90
31074;DHT22;17730;53.552;9.940;2023-01-28T08:55:59;1.90;99.90
31074;DHT22;17730;53.552;9.940;2023-01-28T08:58:25;1.90;99.90
31074;DHT22;17730;53.552;9.940;2023-01-28T09:00:50;2.10;99.90
31074;DHT22;17730;53.552;9.940;2023-01-28T09:03:16;2.10;99.90
31074;DHT22;17730;53.552;9.940;2023-01-28T09:05:42;2.20;99.90
31074;DHT22;17730;53.552;9.940;2023-01-28T09:08:09;2.30;99.90
31074;DHT22;17730;53.552;9.940;2023-01-28T09:10:34;2.50;99.90
31074;DHT22;17730;53.552;9.940;2023-01-28T09:13:05;2.50;99.90
31074;DHT22;17730;53.552;9.940;2023-01-28T09:15:31;2.60;99.90
31074;DHT22;17730;53.552;9.940;2023-01-28T09:17:57;2.70;99.90
31074;DHT22;17730;53.552;9.940;2023-01-28T09:20:23;2.80;99.90
31074;DHT22;17730;53.552;9.940;2023-01-28T09:22:48;2.80;99.90
31074;DHT22;17730;53.552;9.940;2023-01-28T09:25:14;2.90;99.90
31074;DHT22;17730;53.552;9.940;2023-01-28T09:27:39;3.10;99.90
31074;DHT22;17730;53.552;9.940;2023-01-28T09:30:05;3.20;99.90
31074;DHT22;17730;53.552;9.940;2023-01-28T09:32:31;3.60;99.90
31074;DHT22;17730;53.552;9.940;2023-01-28T09:34:56;4.10;99.90
31074;DHT22;17730;53.552;9.940;2023-01-28T09:37:22;4.30;99.90
31074;DHT22;17730;53.552;9.940;2023-01-28T09:39:47;4.40;99.90
31074;DHT22;17730;53.552;9.940;2023-01-28T09:42:18;4.00;99.90
31074;DHT22;17730;53.552;9.940;2023-01-28T09:45:08;3.70;99.90
31074;DHT22;17730;53.552;9.940;2023-01-28T09:47:42;3.60;99.90
31074;DHT22;17730;53.552;9.940;2023-01-28T09:50:17;3.40;99.90
31074;DHT22;17730;53.552;9.940;2023-01-28T09:52:43;3.40;99.90
31074;DHT22;17730;53.552;9.940;2023-01-28T09:55:23;3.50;99.90
31074;DHT22;17730;53.552;9.940;2023-01-28T09:57:54;3.70;99.90
31074;DHT22;17730;53.552;9.940;2023-01-28T10:00:25;4.00;99.90
31074;DHT22;17730;53.552;9.940;2023-01-28T10:03:07;4.30;99.90
31074;DHT22;17730;53.552;9.940;2023-01-28T10:08:34;4.70;99.90
31074;DHT22;17730;53.552;9.940;2023-01-28T10:11:11;4.60;99.90
31074;DHT22;17730;53.552;9.940;2023-01-28T10:13:46;4.60;99.90
31074;DHT22;17730;53.552;9.940;2023-01-28T10:18:47;4.80;99.90
31074;DHT22;17730;53.552;9.940;2023-01-28T10:21:19;5.00;99.90
31074;DHT22;17730;53.552;9.940;2023-01-28T10:24:01;5.10;99.90
31074;DHT22;17730;53.552;9.940;2023-01-28T10:26:38;5.20;99.90
31074;DHT22;17730;53.552;9.940;2023-01-28T10:29:17;5.50;99.90
31074;DHT22;17730;53.552;9.940;2023-01-28T10:31:49;5.70;99.90
31074;DHT22;17730;53.552;9.940;2023-01-28T10:34:15;5.70;99.90
31074;DHT22;17730;53.552;9.940;2023-01-28T10:36:41;5.70;99.90
31074;DHT22;17730;53.552;9.940;2023-01-28T10:39:08;5.50;99.90
31074;DHT22;17730;53.552;9.940;2023-01-28T10:41:35;5.30;99.90
31074;DHT22;17730;53.552;9.940;2023-01-28T10:44:00;5.10;99.90
31074;DHT22;17730;53.552;9.940;2023-01-28T10:46:27;5.00;99.90
31074;DHT22;17730;53.552;9.940;2023-01-28T10:48:56;4.90;99.90
31074;DHT22;17730;53.552;9.940;2023-01-28T10:51:30;4.80;99.90
31074;DHT22;17730;53.552;9.940;2023-01-28T10:53:56;4.70;99.90
31074;DHT22;17730;53.552;9.940;2023-01-28T10:56:28;4.80;99.90
31074;DHT22;17730;53.552;9.940;2023-01-28T10:59:01;4.70;99.90
31074;DHT22;17730;53.552;9.940;2023-01-28T11:04:15;4.40;99.90
31074;DHT22;17730;53.552;9.940;2023-01-28T11:06:42;4.40;99.90
31074;DHT22;17730;53.552;9.940;2023-01-28T11:09:19;4.50;99.90
31074;DHT22;17730;53.552;9.940;2023-01-28T11:11:45;4.70;99.90
31074;DHT22;17730;53.552;9.940;2023-01-28T11:14:18;4.90;99.90
31074;DHT22;17730;53.552;9.940;2023-01-28T11:16:44;4.90;99.90
31074;DHT22;17730;53.552;9.940;2023-01-28T11:19:09;4.90;99.90
31074;DHT22;17730;53.552;9.940;2023-01-28T11:21:36;4.70;99.90
31074;DHT22;17730;53.552;9.940;2023-01-28T11:24:06;4.70;99.90
31074;DHT22;17730;53.552;9.940;2023-01-28T11:26:38;4.80;99.90
31074;DHT22;17730;53.552;9.940;2023-01-28T11:29:17;5.10;99.90
31074;DHT22;17730;53.552;9.940;2023-01-28T11:31:45;5.30;99.90
31074;DHT22;17730;53.552;9.940;2023-01-28T11:34:11;5.70;99.90
31074;DHT22;17730;53.552;9.940;2023-01-28T11:36:48;5.90;99.90
31074;DHT22;17730;53.552;9.940;2023-01-28T11:39:23;6.00;99.90
31074;DHT22;17730;53.552;9.940;2023-01-28T11:41:52;6.20;99.90
31074;DHT22;17730;53.552;9.940;2023-01-28T11:44:19;6.30;99.90
31074;DHT22;17730;53.552;9.940;2023-01-28T11:49:39;5.90;99.90
31074;DHT22;17730;53.552;9.940;2023-01-28T11:52:13;5.60;99.90
31074;DHT22;17730;53.552;9.940;2023-01-28T11:59:44;5.40;99.90
31074;DHT22;17730;53.552;9.940;2023-01-28T12:10:04;5.10;99.90
31074;DHT22;17730;53.552;9.940;2023-01-28T12:12:40;5.40;99.90
31074;DHT22;17730;53.552;9.940;2023-01-28T12:15:28;5.70;99.90
31074;DHT22;17730;53.552;9.940;2023-01-28T12:28:28;6.20;99.90
31074;DHT22;17730;53.552;9.940;2023-01-28T12:35:54;6.10;99.90
31074;DHT22;17730;53.552;9.940;2023-01-28T12:40:59;6.40;99.90
31074;DHT22;17730;53.552;9.940;2023-01-28T12:46:43;6.40;99.90
31074;DHT22;17730;53.552;9.940;2023-01-28T12:57:11;6.30;99.90
31074;DHT22;17730;53.552;9.940;2023-01-28T12:59:41;6.00;99.90
31074;DHT22;17730;53.552;9.940;2023-01-28T13:07:14;5.60;99.90
31074;DHT22;17730;53.552;9.940;2023-01-28T13:09:50;5.60;99.90
31074;DHT22;17730;53.552;9.940;2023-01-28T13:12:17;5.60;99.90
31074;DHT22;17730;53.552;9.940;2023-01-28T13:14:43;5.50;99.90
31074;DHT22;17730;53.552;9.940;2023-01-28T13:17:10;5.40;99.90
31074;DHT22;17730;53.552;9.940;2023-01-28T13:19:37;5.20;99.90
31074;DHT22;17730;53.552;9.940;2023-01-28T13:22:10;5.00;99.90
31074;DHT22;17730;53.552;9.940;2023-01-28T13:24:36;5.00;99.90
31074;DHT22;17730;53.552;9.940;2023-01-28T13:27:09;4.90;99.90
31074;DHT22;17730;53.552;9.940;2023-01-28T13:29:38;5.00;99.90
31074;DHT22;17730;53.552;9.940;2023-01-28T13:32:24;5.10;99.90
31074;DHT22;17730;53.552;9.940;2023-01-28T13:34:56;5.20;99.90
31074;DHT22;17730;53.552;9.940;2023-01-28T13:37:29;5.00;99.90
31074;DHT22;17730;53.552;9.940;2023-01-28T13:42:39;5.00;99.90
31074;DHT22;17730;53.552;9.940;2023-01-28T13:47:41;5.30;99.90
31074;DHT22;17730;53.552;9.940;2023-01-28T13:50:11;5.20;99.90
31074;DHT22;17730;53.552;9.940;2023-01-28T13:52:43;5.10;99.90
31074;DHT22;17730;53.552;9.940;2023-01-28T14:00:46;5.10;99.90
31074;DHT22;17730;53.552;9.940;2023-01-28T14:03:39;5.10;99.90
31074;DHT22;17730;53.552;9.940;2023-01-28T14:06:11;5.10;99.90
31074;DHT22;17730;53.552;9.940;2023-01-28T14:18:38;4.90;99.90
31074;DHT22;17730;53.552;9.940;2023-01-28T14:21:11;4.80;99.90
31074;DHT22;17730;53.552;9.940;2023-01-28T14:23:43;4.80;99.90
31074;DHT22;17730;53.552;9.940;2023-01-28T14:26:17;4.70;99.90
31074;DHT22;17730;53.552;9.940;2023-01-28T14:31:26;4.70;99.90
31074;DHT22;17730;53.552;9.940;2023-01-28T14:33:52;4.70;99.90
31074;DHT22;17730;53.552;9.940;2023-01-28T14:36:18;4.70;99.90
31074;DHT22;17730;53.552;9.940;2023-01-28T14:38:44;4.60;99.90
31074;DHT22;17730;53.552;9.940;2023-01-28T14:41:17;4.60;99.90
31074;DHT22;17730;53.552;9.940;2023-01-28T14:43:44;4.60;99.90
31074;DHT22;17730;53.552;9.940;2023-01-28T14:46:12;4.60;99.90
31074;DHT22;17730;53.552;9.940;2023-01-28T14:49:04;4.60;99.90
31074;DHT22;17730;53.552;9.940;2023-01-28T14:54:02;4.50;99.90
31074;DHT22;17730;53.552;9.940;2023-01-28T14:59:01;4.60;99.90
31074;DHT22;17730;53.552;9.940;2023-01-28T15:01:29;4.50;99.90
31074;DHT22;17730;53.552;9.940;2023-01-28T15:03:55;4.50;99.90
31074;DHT22;17730;53.552;9.940;2023-01-28T15:06:21;4.50;99.90
31074;DHT22;17730;53.552;9.940;2023-01-28T15:08:51;4.50;99.90
31074;DHT22;17730;53.552;9.940;2023-01-28T15:11:18;4.50;99.90
31074;DHT22;17730;53.552;9.940;2023-01-28T15:13:45;4.50;99.90
31074;DHT22;17730;53.552;9.940;2023-01-28T15:16:21;4.50;99.90
31074;DHT22;17730;53.552;9.940;2023-01-28T15:18:47;4.50;99.90
31074;DHT22;17730;53.552;9.940;2023-01-28T15:21:13;4.50;99.90
31074;DHT22;17730;53.552;9.940;2023-01-28T15:23:40;4.40;99.90
31074;DHT22;17730;53.552;9.940;2023-01-28T15:26:14;4.40;99.90
31074;DHT22;17730;53.552;9.940;2023-01-28T15:28:41;4.40;99.90
31074;DHT22;17730;53.552;9.940;2023-01-28T15:31:15;4.40;99.90
31074;DHT22;17730;53.552;9.940;2023-01-28T15:33:43;4.30;99.90
31074;DHT22;17730;53.552;9.940;2023-01-28T15:36:08;4.30;99.90
31074;DHT22;17730;53.552;9.940;2023-01-28T15:38:34;4.20;99.90
31074;DHT22;17730;53.552;9.940;2023-01-28T15:41:00;4.10;99.90
31074;DHT22;17730;53.552;9.940;2023-01-28T15:43:27;4.00;99.90
31074;DHT22;17730;53.552;9.940;2023-01-28T15:45:53;3.90;99.90
31074;DHT22;17730;53.552;9.940;2023-01-28T15:48:21;3.80;99.90
31074;DHT22;17730;53.552;9.940;2023-01-28T15:50:56;3.80;99.90
31074;DHT22;17730;53.552;9.940;2023-01-28T15:53:21;3.70;99.90
31074;DHT22;17730;53.552;9.940;2023-01-28T15:55:47;3.70;99.90
31074;DHT22;17730;53.552;9.940;2023-01-28T16:00:42;3.70;99.90
31074;DHT22;17730;53.552;9.940;2023-01-28T16:03:08;3.60;99.90
31074;DHT22;17730;53.552;9.940;2023-01-28T16:08:45;3.60;99.90
31074;DHT22;17730;53.552;9.940;2023-01-28T16:10:51;3.60;99.90
31074;DHT22;17730;53.552;9.940;2023-01-28T16:13:19;3.70;99.90
31074;DHT22;17730;53.552;9.940;2023-01-28T16:15:46;3.70;99.90
31074;DHT22;17730;53.552;9.940;2023-01-28T16:20:49;3.80;99.90
31074;DHT22;17730;53.552;9.940;2023-01-28T16:23:25;3.80;99.90
31074;DHT22;17730;53.552;9.940;2023-01-28T16:26:02;3.70;99.90
31074;DHT22;17730;53.552;9.940;2023-01-28T16:28:28;3.70;99.90
31074;DHT22;17730;53.552;9.940;2023-01-28T16:30:55;3.70;99.90
31074;DHT22;17730;53.552;9.940;2023-01-28T16:33:20;3.70;99.90
31074;DHT22;17730;53.552;9.940;2023-01-28T16:35:46;3.70;99.90
31074;DHT22;17730;53.552;9.940;2023-01-28T16:38:12;3.70;99.90
31074;DHT22;17730;53.552;9.940;2023-01-28T16:40:44;3.70;99.90
31074;DHT22;17730;53.552;9.940;2023-01-28T16:43:10;3.70;99.90
31074;DHT22;17730;53.552;9.940;2023-01-28T16:45:36;3.70;99.90
31074;DHT22;17730;53.552;9.940;2023-01-28T16:48:02;3.70;99.90
31074;DHT22;17730;53.552;9.940;2023-01-28T16:50:27;3.70;99.90
31074;DHT22;17730;53.552;9.940;2023-01-28T16:52:53;3.70;99.90
31074;DHT22;17730;53.552;9.940;2023-01-28T16:55:19;3.70;99.90
31074;DHT22;17730;53.552;9.940;2023-01-28T16:57:46;3.60;99.90
31074;DHT22;17730;53.552;9.940;2023-01-28T17:00:17;3.60;99.90
31074;DHT22;17730;53.552;9.940;2023-01-28T17:02:43;3.60;99.90
31074;DHT22;17730;53.552;9.940;2023-01-28T17:05:09;3.70;99.90
31074;DHT22;17730;53.552;9.940;2023-01-28T17:07:35;3.70;99.90
31074;DHT22;17730;53.552;9.940;2023-01-28T17:10:01;3.70;99.90
31074;DHT22;17730;53.552;9.940;2023-01-28T17:12:27;3.70;99.90
31074;DHT22;17730;53.552;9.940;2023-01-28T17:14:52;3.70;99.90
31074;DHT22;17730;53.552;9.940;2023-01-28T17:17:18;3.70;99.90
31074;DHT22;17730;53.552;9.940;2023-01-28T17:19:43;3.80;99.90
31074;DHT22;17730;53.552;9.940;2023-01-28T17:22:09;3.70;99.90
31074;DHT22;17730;53.552;9.940;2023-01-28T17:24:34;3.70;99.90
31074;DHT22;17730;53.552;9.940;2023-01-28T17:27:00;3.70;99.90
31074;DHT22;17730;53.552;9.940;2023-01-28T17:29:25;3.60;99.90
31074;DHT22;17730;53.552;9.940;2023-01-28T17:31:51;3.60;99.90
31074;DHT22;17730;53.552;9.940;2023-01-28T17:34:16;3.60;99.90
31074;DHT22;17730;53.552;9.940;2023-01-28T17:36:42;3.60;99.90
31074;DHT22;17730;53.552;9.940;2023-01-28T17:39:07;3.60;99.90
31074;DHT22;17730;53.552;9.940;2023-01-28T17:41:33;3.60;99.90
31074;DHT22;17730;53.552;9.940;2023-01-28T17:43:58;3.60;99.90